Aviation Digital Data Service (ADDS)

Output produced by METARs form (2351 UTC 03 December 2016)
found at http://aviationweather.gov/adds/metars/
 
KBHB 032320Z 0400/0424 33009KT P6SM SCT030 BKN045 
     TEMPO 0400/0403 BKN028 
     FM041500 33010G17KT P6SM SCT045 
     FM042100 32007KT P6SM SCT050